createdAt,value
2018-01-02T00:01:11.839Z,5.00
2018-01-02T00:03:40.154Z,5.00
2018-01-02T00:06:08.385Z,4.90
2018-01-02T00:08:36.702Z,4.80
2018-01-02T00:11:04.964Z,4.80
2018-01-02T00:13:34.130Z,4.70
2018-01-02T00:16:02.515Z,4.70
2018-01-02T00:18:30.795Z,4.60
2018-01-02T00:20:59.095Z,4.70
2018-01-02T00:23:27.293Z,4.60
2018-01-02T00:25:55.577Z,4.50
2018-01-02T00:28:24.665Z,4.50
2018-01-02T00:30:52.930Z,4.50
2018-01-02T00:33:21.194Z,4.50
2018-01-02T00:35:49.463Z,4.50
2018-01-02T00:38:17.727Z,4.50
2018-01-02T00:40:45.945Z,4.50
2018-01-02T00:43:14.226Z,4.40
2018-01-02T00:45:43.257Z,4.40
2018-01-02T00:48:11.521Z,4.30
2018-01-02T00:50:39.734Z,4.30
2018-01-02T00:53:07.983Z,4.40
2018-01-02T00:55:36.245Z,4.30
2018-01-02T00:58:05.252Z,4.20
2018-01-02T01:00:34.276Z,4.20
2018-01-02T01:03:02.560Z,4.20
2018-01-02T01:05:30.854Z,4.10
2018-01-02T01:07:59.089Z,4.10
2018-01-02T01:10:27.329Z,4.10
2018-01-02T01:12:56.349Z,4.10
2018-01-02T01:15:24.604Z,4.10
2018-01-02T01:17:52.840Z,4.10
2018-01-02T01:20:21.072Z,4.10
2018-01-02T01:22:49.327Z,4.10
2018-01-02T01:25:18.693Z,4.20
2018-01-02T01:27:46.963Z,4.10
2018-01-02T01:30:15.176Z,4.20
2018-01-02T01:32:43.660Z,4.20
2018-01-02T01:35:11.903Z,4.20
2018-01-02T01:37:40.133Z,4.10
2018-01-02T01:40:09.140Z,4.00
2018-01-02T01:42:38.239Z,4.00
2018-01-02T01:45:07.253Z,4.00
2018-01-02T01:47:35.514Z,4.00
2018-01-02T01:50:04.563Z,4.10
2018-01-02T01:52:32.829Z,4.10
2018-01-02T01:55:01.104Z,4.10
2018-01-02T01:57:29.340Z,4.10
2018-01-02T01:59:58.581Z,4.10
2018-01-02T02:02:26.806Z,4.00
2018-01-02T02:04:55.881Z,4.10
2018-01-02T02:07:24.112Z,4.00
2018-01-02T02:09:52.392Z,4.10
2018-01-02T02:12:20.742Z,4.10
2018-01-02T02:14:49.719Z,4.20
2018-01-02T02:17:18.798Z,4.20
2018-01-02T02:19:47.026Z,4.20
2018-01-02T02:22:15.261Z,4.30
2018-01-02T02:24:43.515Z,4.30
2018-01-02T02:27:11.736Z,4.30
2018-01-02T02:29:40.758Z,4.30
2018-01-02T02:32:08.998Z,4.30
2018-01-02T02:34:37.261Z,4.40
2018-01-02T02:37:05.516Z,4.40
2018-01-02T02:39:33.780Z,4.40
2018-01-02T02:42:02.018Z,4.40
2018-01-02T02:44:31.099Z,4.40
2018-01-02T02:46:59.343Z,4.40
2018-01-02T02:49:27.605Z,4.40
2018-01-02T02:51:57.677Z,4.50
2018-01-02T02:54:27.558Z,4.50
2018-01-02T02:56:55.782Z,4.50
2018-01-02T02:59:24.842Z,4.60
2018-01-02T03:01:53.894Z,4.60
2018-01-02T03:04:22.888Z,4.60
2018-01-02T03:06:51.113Z,4.60
2018-01-02T03:09:19.366Z,4.60
2018-01-02T03:11:47.610Z,4.60
2018-01-02T03:14:15.876Z,4.60
2018-01-02T03:16:44.905Z,4.70
2018-01-02T03:19:13.153Z,4.70
2018-01-02T03:21:41.414Z,4.70
2018-01-02T03:24:10.523Z,4.80
2018-01-02T03:26:39.539Z,4.80
2018-01-02T03:29:07.983Z,4.80
2018-01-02T03:31:36.217Z,4.80
2018-01-02T03:34:04.508Z,4.80
2018-01-02T03:36:32.769Z,4.90
2018-01-02T03:39:01.030Z,4.90
2018-01-02T03:41:29.286Z,4.80
2018-01-02T03:43:57.543Z,4.80
2018-01-02T03:46:25.818Z,4.80
2018-01-02T03:48:54.048Z,4.80
2018-01-02T03:51:22.365Z,4.80
2018-01-02T03:53:50.620Z,4.90
2018-01-02T03:56:18.873Z,4.90
2018-01-02T03:58:47.130Z,5.00
2018-01-02T04:01:15.648Z,5.00
2018-01-02T04:03:43.894Z,5.00
2018-01-02T04:06:12.351Z,5.10
2018-01-02T04:08:41.394Z,5.10
2018-01-02T04:11:09.650Z,5.10
2018-01-02T04:13:37.924Z,5.10
2018-01-02T04:16:06.160Z,5.20
2018-01-02T04:18:35.201Z,5.20
2018-01-02T04:21:03.540Z,5.20
2018-01-02T04:23:32.540Z,5.30
2018-01-02T04:26:01.600Z,5.30
2018-01-02T04:28:29.885Z,5.30
2018-01-02T04:30:58.165Z,5.30
2018-01-02T04:33:26.428Z,5.30
2018-01-02T04:35:54.831Z,5.30
2018-01-02T04:38:23.067Z,5.30
2018-01-02T04:40:51.313Z,5.30
2018-01-02T04:43:20.362Z,5.30
2018-01-02T04:45:48.654Z,5.30
2018-01-02T04:48:17.097Z,5.40
2018-01-02T04:50:46.104Z,5.40
2018-01-02T04:53:14.366Z,5.40
2018-01-02T04:55:42.634Z,5.40
2018-01-02T04:58:10.891Z,5.40
2018-01-02T05:00:39.198Z,5.30
2018-01-02T05:03:07.464Z,5.40
2018-01-02T05:05:35.777Z,5.40
2018-01-02T05:08:04.017Z,5.40
2018-01-02T05:10:32.285Z,5.40
2018-01-02T05:13:00.640Z,5.50
2018-01-02T05:15:28.910Z,5.50
2018-01-02T05:17:57.242Z,5.50
2018-01-02T05:20:25.495Z,5.50
2018-01-02T05:22:53.743Z,5.50
2018-01-02T05:25:24.313Z,5.50
2018-01-02T05:27:53.334Z,5.40
2018-01-02T05:30:21.570Z,5.40
2018-01-02T05:32:50.723Z,5.40
2018-01-02T05:35:19.789Z,5.50
2018-01-02T05:37:48.042Z,5.40
2018-01-02T05:40:17.085Z,5.60
2018-01-02T05:42:45.330Z,5.60
2018-01-02T05:45:13.601Z,5.70
2018-01-02T05:47:41.908Z,5.60
2018-01-02T05:50:10.239Z,5.60
2018-01-02T05:52:38.499Z,5.60
2018-01-02T05:55:06.714Z,5.60
2018-01-02T05:57:35.169Z,5.70
2018-01-02T06:00:03.402Z,5.70
2018-01-02T06:02:31.684Z,5.70
2018-01-02T06:04:59.994Z,5.70
2018-01-02T06:07:28.244Z,5.80
2018-01-02T06:09:56.528Z,5.80
2018-01-02T06:12:25.087Z,5.80
2018-01-02T06:14:53.373Z,5.80
2018-01-02T06:17:21.650Z,5.80
2018-01-02T06:19:50.006Z,5.70
2018-01-02T06:22:18.247Z,5.70
2018-01-02T06:24:46.540Z,5.70
2018-01-02T06:27:15.564Z,5.70
2018-01-02T06:29:43.824Z,5.70
2018-01-02T06:32:13.431Z,5.60
2018-01-02T06:34:42.453Z,5.80
2018-01-02T06:37:10.763Z,5.70
2018-01-02T06:39:39.017Z,5.80
2018-01-02T06:42:07.279Z,5.80
2018-01-02T06:44:36.325Z,5.80
2018-01-02T06:47:04.564Z,5.80
2018-01-02T06:49:32.840Z,5.80
2018-01-02T06:52:01.076Z,5.90
2018-01-02T06:54:29.357Z,5.90
2018-01-02T06:56:58.374Z,5.90
2018-01-02T06:59:26.639Z,5.80
2018-01-02T07:01:54.898Z,5.90
2018-01-02T07:04:23.136Z,5.80
2018-01-02T07:06:51.417Z,5.80
2018-01-02T07:09:19.653Z,5.80
2018-01-02T07:11:48.834Z,5.80
2018-01-02T07:14:17.096Z,5.80
2018-01-02T07:16:45.350Z,5.90
2018-01-02T07:19:13.610Z,5.90
2018-01-02T07:21:41.878Z,5.90
2018-01-02T07:24:10.125Z,5.90
2018-01-02T07:26:38.394Z,5.90
2018-01-02T07:29:07.442Z,5.80
2018-01-02T07:31:35.700Z,5.70
2018-01-02T07:34:03.993Z,5.80
2018-01-02T07:36:32.232Z,5.80
2018-01-02T07:39:01.310Z,5.70
2018-01-02T07:41:29.593Z,5.70
2018-01-02T07:43:58.613Z,5.80
2018-01-02T07:46:26.894Z,5.80
2018-01-02T07:48:55.173Z,5.80
2018-01-02T07:51:23.433Z,5.90
2018-01-02T07:53:51.741Z,5.90
2018-01-02T07:56:19.978Z,6.00
2018-01-02T07:58:48.983Z,6.00
2018-01-02T08:01:18.044Z,6.00
2018-01-02T08:03:46.287Z,6.00
2018-01-02T08:06:14.532Z,5.90
2018-01-02T08:08:42.771Z,5.90
2018-01-02T08:11:11.035Z,5.90
2018-01-02T08:13:39.292Z,5.90
2018-01-02T08:16:07.543Z,6.00
2018-01-02T08:18:36.566Z,6.00
2018-01-02T08:21:04.794Z,5.90
2018-01-02T08:23:33.818Z,6.00
2018-01-02T08:26:02.152Z,6.00
2018-01-02T08:28:30.401Z,5.90
2018-01-02T08:30:58.921Z,6.00
2018-01-02T08:33:27.185Z,6.10
2018-01-02T08:35:55.455Z,6.10
2018-01-02T08:38:23.730Z,6.10
2018-01-02T08:40:52.036Z,6.10
2018-01-02T08:43:20.285Z,6.00
2018-01-02T08:45:48.525Z,5.90
2018-01-02T08:48:16.782Z,6.00
2018-01-02T08:50:45.854Z,6.10
2018-01-02T08:53:14.069Z,6.10
2018-01-02T08:55:42.331Z,6.00
2018-01-02T08:58:11.429Z,6.20
2018-01-02T09:00:40.435Z,6.30
2018-01-02T09:03:08.689Z,6.30
2018-01-02T09:05:37.760Z,6.30
2018-01-02T09:08:06.066Z,6.30
2018-01-02T09:10:35.145Z,6.30
2018-01-02T09:13:08.964Z,6.30
2018-01-02T09:15:37.292Z,6.30
2018-01-02T09:18:05.554Z,6.40
2018-01-02T09:20:33.835Z,6.40
2018-01-02T09:23:02.094Z,6.30
2018-01-02T09:25:30.344Z,6.20
2018-01-02T09:27:59.526Z,6.20
2018-01-02T09:30:27.904Z,6.20
2018-01-02T09:32:56.170Z,6.20
2018-01-02T09:35:24.417Z,6.30
2018-01-02T09:37:52.693Z,6.30
2018-01-02T09:40:20.937Z,6.30
2018-01-02T09:42:49.190Z,6.30
2018-01-02T09:45:17.477Z,6.20
2018-01-02T09:47:45.714Z,6.20
2018-01-02T09:50:14.018Z,6.30
2018-01-02T09:52:42.264Z,6.30
2018-01-02T09:55:10.506Z,6.40
2018-01-02T09:57:39.527Z,6.20
2018-01-02T10:00:08.541Z,6.10
2018-01-02T10:02:36.842Z,6.10
2018-01-02T10:05:05.078Z,6.10
2018-01-02T10:07:33.320Z,6.00
2018-01-02T10:10:01.567Z,5.80
2018-01-02T10:12:29.829Z,5.70
2018-01-02T10:14:58.068Z,5.60
2018-01-02T10:17:27.102Z,5.50
2018-01-02T10:19:55.350Z,5.50
2018-01-02T10:22:23.599Z,5.50
2018-01-02T10:24:52.716Z,5.50
2018-01-02T10:27:20.946Z,5.50
2018-01-02T10:29:49.261Z,5.60
2018-01-02T10:32:17.506Z,5.50
2018-01-02T10:34:45.781Z,5.60
2018-01-02T10:37:14.025Z,5.60
2018-01-02T10:39:42.287Z,5.60
2018-01-02T10:42:10.582Z,5.50
2018-01-02T10:44:38.814Z,5.60
2018-01-02T10:47:08.782Z,5.60
2018-01-02T10:49:37.102Z,5.60
2018-01-02T10:52:05.399Z,5.70
2018-01-02T10:54:34.446Z,5.80
2018-01-02T10:57:02.702Z,5.80
2018-01-02T10:59:30.972Z,5.80
2018-01-02T11:01:59.982Z,5.80
2018-01-02T11:04:28.260Z,5.70
2018-01-02T11:06:56.499Z,5.80
2018-01-02T11:09:25.499Z,5.70
2018-01-02T11:11:58.488Z,5.80
2018-01-02T11:14:39.296Z,5.70
2018-01-02T11:17:07.559Z,5.70
2018-01-02T11:19:35.841Z,5.80
2018-01-02T11:22:04.085Z,5.80
2018-01-02T11:24:33.091Z,6.00
2018-01-02T11:27:02.089Z,6.00
2018-01-02T11:29:30.369Z,6.10
2018-01-02T11:31:59.515Z,6.00
2018-01-02T11:34:27.828Z,6.00
2018-01-02T11:36:56.085Z,6.00
2018-01-02T11:39:24.292Z,6.00
2018-01-02T11:41:52.558Z,6.10
2018-01-02T11:44:21.701Z,6.10
2018-01-02T11:46:49.926Z,6.20
2018-01-02T11:49:18.949Z,6.40
2018-01-02T11:51:47.215Z,6.40
2018-01-02T11:54:15.505Z,6.40
2018-01-02T11:56:43.799Z,6.50
2018-01-02T11:59:12.070Z,6.60
2018-01-02T12:01:40.446Z,6.60
2018-01-02T12:04:08.670Z,6.60
2018-01-02T12:06:36.920Z,6.70
2018-01-02T12:09:05.162Z,6.50
2018-01-02T12:11:34.203Z,6.50
2018-01-02T12:14:02.459Z,6.50
2018-01-02T12:16:30.706Z,6.50
2018-01-02T12:18:59.744Z,6.50
2018-01-02T12:21:28.014Z,6.50
2018-01-02T12:23:56.279Z,6.50
2018-01-02T12:26:24.504Z,6.40
2018-01-02T12:28:53.117Z,6.50
2018-01-02T12:31:22.122Z,6.40
2018-01-02T12:33:50.378Z,6.40
2018-01-02T12:36:19.380Z,6.50
2018-01-02T12:38:48.458Z,6.50
2018-01-02T12:41:16.741Z,6.40
2018-01-02T12:43:45.000Z,6.50
2018-01-02T12:46:13.311Z,6.50
2018-01-02T12:48:42.350Z,6.60
2018-01-02T12:51:10.598Z,6.60
2018-01-02T12:53:39.012Z,6.70
2018-01-02T12:56:07.276Z,6.40
2018-01-02T12:58:36.487Z,6.50
2018-01-02T13:01:04.753Z,6.40
2018-01-02T13:03:33.055Z,6.50
2018-01-02T13:06:01.309Z,6.50
2018-01-02T13:08:29.590Z,6.50
2018-01-02T13:10:57.811Z,6.50
2018-01-02T13:13:26.052Z,6.50
2018-01-02T13:15:54.302Z,6.40
2018-01-02T13:18:22.537Z,6.40
2018-01-02T13:20:52.285Z,6.30
2018-01-02T13:23:20.606Z,6.30
2018-01-02T13:25:48.884Z,6.30
2018-01-02T13:28:17.131Z,6.30
2018-01-02T13:30:45.432Z,6.40
2018-01-02T13:33:14.401Z,6.30
2018-01-02T13:35:42.680Z,6.30
2018-01-02T13:38:11.719Z,6.40
2018-01-02T13:40:40.495Z,6.50
2018-01-02T13:43:08.751Z,6.50
2018-01-02T13:45:37.014Z,6.50
2018-01-02T13:48:05.352Z,6.30
2018-01-02T13:50:33.627Z,6.30
2018-01-02T13:53:03.506Z,6.20
2018-01-02T13:55:31.795Z,6.20
2018-01-02T13:58:00.075Z,6.30
2018-01-02T14:00:28.347Z,6.40
2018-01-02T14:02:57.460Z,6.50
2018-01-02T14:05:25.696Z,6.50
2018-01-02T14:07:53.984Z,6.60
2018-01-02T14:10:22.285Z,6.60
2018-01-02T14:12:50.580Z,6.60
2018-01-02T14:15:18.821Z,6.70
2018-01-02T14:17:47.161Z,6.70
2018-01-02T14:20:16.172Z,6.60
2018-01-02T14:22:44.435Z,6.60
2018-01-02T14:25:13.451Z,6.50
2018-01-02T14:27:41.832Z,6.50
2018-01-02T14:30:10.176Z,6.50
2018-01-02T14:32:38.411Z,6.50
2018-01-02T14:35:06.842Z,6.50
2018-01-02T14:37:35.907Z,6.30
2018-01-02T14:40:04.202Z,6.30
2018-01-02T14:42:33.428Z,6.20
2018-01-02T14:45:02.449Z,6.30
2018-01-02T14:47:30.709Z,6.30
2018-01-02T14:49:59.008Z,6.30
2018-01-02T14:52:27.274Z,6.40
2018-01-02T14:54:55.655Z,6.30
2018-01-02T14:57:24.060Z,6.20
2018-01-02T14:59:52.277Z,6.20
2018-01-02T15:02:21.336Z,6.20
2018-01-02T15:04:49.576Z,6.20
2018-01-02T15:07:17.878Z,6.10
2018-01-02T15:09:46.189Z,6.10
2018-01-02T15:12:15.271Z,6.00
2018-01-02T15:14:43.515Z,6.00
2018-01-02T15:17:11.861Z,6.00
2018-01-02T15:19:40.911Z,5.90
2018-01-02T15:22:09.162Z,5.80
2018-01-02T15:24:37.445Z,5.80
2018-01-02T15:27:05.748Z,5.80
2018-01-02T15:29:34.020Z,5.70
2018-01-02T15:32:02.302Z,5.70
2018-01-02T15:34:31.514Z,5.70
2018-01-02T15:36:59.758Z,5.60
2018-01-02T15:39:28.009Z,5.60
2018-01-02T15:41:56.272Z,5.60
2018-01-02T15:44:25.330Z,5.50
2018-01-02T15:46:53.598Z,5.50
2018-01-02T15:49:22.730Z,5.40
2018-01-02T15:51:50.955Z,5.50
2018-01-02T15:54:19.276Z,5.40
2018-01-02T15:56:47.506Z,5.40
2018-01-02T15:59:16.722Z,5.40
2018-01-02T16:01:45.008Z,5.40
2018-01-02T16:04:28.152Z,5.40
2018-01-02T16:06:56.435Z,5.40
2018-01-02T16:09:25.478Z,5.50
2018-01-02T16:11:53.760Z,5.40
2018-01-02T16:14:22.039Z,5.50
2018-01-02T16:16:50.325Z,5.50
2018-01-02T16:19:18.647Z,5.50
2018-01-02T16:21:46.890Z,5.50
2018-01-02T16:24:15.130Z,5.50
2018-01-02T16:26:43.402Z,5.60
2018-01-02T16:29:11.698Z,5.50
2018-01-02T16:31:40.030Z,5.50
2018-01-02T16:34:08.366Z,5.50
2018-01-02T16:36:36.827Z,5.50
2018-01-02T16:39:05.146Z,5.60
2018-01-02T16:41:43.606Z,5.50
2018-01-02T16:44:13.276Z,5.60
2018-01-02T16:46:42.799Z,5.50
2018-01-02T16:49:14.416Z,5.50
2018-01-02T16:51:44.278Z,5.50
2018-01-02T16:54:12.771Z,5.50
2018-01-02T16:56:41.798Z,5.60
2018-01-02T16:59:10.736Z,5.60
2018-01-02T17:01:39.657Z,5.60
2018-01-02T17:04:08.274Z,5.60
2018-01-02T17:06:36.653Z,5.70
2018-01-02T17:09:07.933Z,5.70
2018-01-02T17:11:38.110Z,5.60
2018-01-02T17:14:06.573Z,5.60
2018-01-02T17:16:34.862Z,5.60
2018-01-02T17:19:04.005Z,5.60
2018-01-02T17:21:32.256Z,5.60
2018-01-02T17:24:00.598Z,5.60
2018-01-02T17:26:29.749Z,5.60
2018-01-02T17:28:58.056Z,5.60
2018-01-02T17:31:26.410Z,5.60
2018-01-02T17:33:54.741Z,5.60
2018-01-02T17:36:23.738Z,5.60
2018-01-02T17:38:53.121Z,5.70
2018-01-02T17:41:22.047Z,5.60
2018-01-02T17:43:51.192Z,5.70
2018-01-02T17:46:19.485Z,5.70
2018-01-02T17:48:48.277Z,5.60
2018-01-02T17:51:16.711Z,5.60
2018-01-02T17:53:44.946Z,5.60
2018-01-02T17:56:14.075Z,5.60
2018-01-02T17:58:42.531Z,5.60
2018-01-02T18:01:11.745Z,5.60
2018-01-02T18:03:40.073Z,5.60
2018-01-02T18:06:08.678Z,5.60
2018-01-02T18:08:36.927Z,5.60
2018-01-02T18:11:05.227Z,5.70
2018-01-02T18:13:34.311Z,5.70
2018-01-02T18:16:02.582Z,5.70
2018-01-02T18:18:30.906Z,5.70
2018-01-02T18:20:59.177Z,5.70
2018-01-02T18:23:28.473Z,5.70
2018-01-02T18:25:56.717Z,5.70
2018-01-02T18:28:25.546Z,5.70
2018-01-02T18:30:54.950Z,5.70
2018-01-02T18:33:24.347Z,5.70
2018-01-02T18:35:52.699Z,5.70
2018-01-02T18:38:20.979Z,5.70
2018-01-02T18:40:49.265Z,5.70
2018-01-02T18:43:17.576Z,5.70
2018-01-02T18:45:45.959Z,5.70
2018-01-02T18:48:15.254Z,5.80
2018-01-02T18:50:44.360Z,5.80
2018-01-02T18:53:14.645Z,5.80
2018-01-02T18:55:43.457Z,5.80
2018-01-02T18:58:11.775Z,5.80
2018-01-02T19:00:41.332Z,5.80
2018-01-02T19:03:11.770Z,5.70
2018-01-02T19:05:40.903Z,5.70
2018-01-02T19:08:09.360Z,5.80
2018-01-02T19:10:37.805Z,5.80
2018-01-02T19:13:06.116Z,5.80
2018-01-02T19:15:35.296Z,5.80
2018-01-02T19:18:04.602Z,5.80
2018-01-02T19:20:32.976Z,5.80
2018-01-02T19:23:02.066Z,5.90
2018-01-02T19:25:31.368Z,5.80
2018-01-02T19:28:00.668Z,5.80
2018-01-02T19:30:29.765Z,5.80
2018-01-02T19:32:59.889Z,5.90
2018-01-02T19:35:29.503Z,5.90
2018-01-02T19:37:57.918Z,5.90
2018-01-02T19:40:26.946Z,5.90
2018-01-02T19:42:55.272Z,5.90
2018-01-02T19:45:25.374Z,5.90
2018-01-02T19:47:53.857Z,5.90
2018-01-02T19:50:22.232Z,5.90
2018-01-02T19:52:50.859Z,5.90
2018-01-02T19:55:19.561Z,6.00
2018-01-02T19:57:47.948Z,5.90
2018-01-02T20:00:16.472Z,6.00
2018-01-02T20:02:45.538Z,6.00
2018-01-02T20:05:13.892Z,6.00
2018-01-02T20:07:43.046Z,5.90
2018-01-02T20:10:12.262Z,6.00
2018-01-02T20:12:41.550Z,5.90
2018-01-02T20:15:10.033Z,5.90
2018-01-02T20:17:39.532Z,5.80
2018-01-02T20:20:07.985Z,5.70
2018-01-02T20:22:36.276Z,5.70
2018-01-02T20:25:04.614Z,5.70
2018-01-02T20:27:34.694Z,5.70
2018-01-02T20:30:03.433Z,5.70
2018-01-02T20:32:31.876Z,5.70
2018-01-02T20:35:00.242Z,5.70
2018-01-02T20:37:28.503Z,5.60
2018-01-02T20:39:57.636Z,5.60
2018-01-02T20:42:25.903Z,5.60
2018-01-02T20:44:55.746Z,5.60
2018-01-02T20:47:24.342Z,5.60
2018-01-02T20:49:52.685Z,5.60
2018-01-02T20:52:22.584Z,5.70
2018-01-02T20:54:52.150Z,5.60
2018-01-02T20:57:21.085Z,5.70
2018-01-02T20:59:49.561Z,5.70
2018-01-02T21:02:18.364Z,5.60
2018-01-02T21:04:46.826Z,5.60
2018-01-02T21:07:15.148Z,5.60
2018-01-02T21:09:44.736Z,5.60
2018-01-02T21:12:15.164Z,5.60
2018-01-02T21:14:44.213Z,5.70
2018-01-02T21:17:12.550Z,5.70
2018-01-02T21:19:42.160Z,5.70
2018-01-02T21:22:11.246Z,5.70
2018-01-02T21:24:40.444Z,5.70
2018-01-02T21:27:09.328Z,5.70
2018-01-02T21:29:38.650Z,5.70
2018-01-02T21:32:07.729Z,5.80
2018-01-02T21:34:36.205Z,5.80
2018-01-02T21:37:05.544Z,5.80
2018-01-02T21:39:34.602Z,5.80
2018-01-02T21:42:03.607Z,5.80
2018-01-02T21:44:34.291Z,5.80
2018-01-02T21:47:02.605Z,5.80
2018-01-02T21:49:30.911Z,5.80
2018-01-02T21:52:00.571Z,5.70
2018-01-02T21:54:29.299Z,5.70
2018-01-02T21:56:57.827Z,5.70
2018-01-02T21:59:26.856Z,5.80
2018-01-02T22:01:55.763Z,5.80
2018-01-02T22:04:24.872Z,5.80
2018-01-02T22:06:53.315Z,5.80
2018-01-02T22:09:22.229Z,5.80
2018-01-02T22:11:51.435Z,5.80
2018-01-02T22:14:20.758Z,5.90
2018-01-02T22:16:49.037Z,5.80
2018-01-02T22:19:17.322Z,5.90
2018-01-02T22:21:47.420Z,6.00
2018-01-02T22:24:16.295Z,6.00
2018-01-02T22:26:44.585Z,6.00
2018-01-02T22:29:13.978Z,6.00
2018-01-02T22:31:42.302Z,6.10
2018-01-02T22:34:11.410Z,6.10
2018-01-02T22:36:39.703Z,6.10
2018-01-02T22:39:08.001Z,6.20
2018-01-02T22:41:36.485Z,6.10
2018-01-02T22:44:04.808Z,6.20
2018-01-02T22:46:33.816Z,6.20
2018-01-02T22:49:02.107Z,6.20
2018-01-02T22:51:30.434Z,6.20
2018-01-02T22:53:58.761Z,6.20
2018-01-02T22:56:27.006Z,6.20
2018-01-02T22:58:55.278Z,6.30
2018-01-02T23:01:23.608Z,6.30
2018-01-02T23:03:51.954Z,6.40
2018-01-02T23:06:20.252Z,6.40
2018-01-02T23:08:48.500Z,6.30
2018-01-02T23:11:17.647Z,6.30
2018-01-02T23:13:45.930Z,6.30
2018-01-02T23:16:14.214Z,6.30
2018-01-02T23:18:42.416Z,6.30
2018-01-02T23:21:11.469Z,6.40
2018-01-02T23:23:39.732Z,6.30
2018-01-02T23:26:09.556Z,6.30
2018-01-02T23:28:37.790Z,6.30
2018-01-02T23:31:06.877Z,6.30
2018-01-02T23:33:35.112Z,6.30
2018-01-02T23:36:03.395Z,6.30
2018-01-02T23:38:31.709Z,6.20
2018-01-02T23:40:59.935Z,6.30
2018-01-02T23:43:28.208Z,6.30
2018-01-02T23:45:56.440Z,6.30
2018-01-02T23:48:24.740Z,6.30
2018-01-02T23:50:53.033Z,6.40
2018-01-02T23:53:21.329Z,6.40
2018-01-02T23:55:49.676Z,6.40
2018-01-02T23:58:18.747Z,6.40
